createdAt,value
2018-09-28T00:04:05.067Z,7.50
2018-09-28T00:08:13.196Z,7.40
2018-09-28T00:12:21.349Z,7.40
2018-09-28T00:16:29.516Z,7.40
2018-09-28T00:20:37.653Z,7.30
2018-09-28T00:24:45.800Z,7.20
2018-09-28T00:28:53.977Z,7.20
2018-09-28T00:33:02.133Z,7.10
2018-09-28T00:37:10.297Z,7.10
2018-09-28T00:41:18.451Z,7.00
2018-09-28T00:45:26.603Z,7.00
2018-09-28T00:49:35.197Z,6.90
2018-09-28T00:53:43.324Z,6.90
2018-09-28T00:57:51.559Z,6.80
2018-09-28T01:01:59.692Z,6.80
2018-09-28T01:06:07.850Z,6.80
2018-09-28T01:10:16.001Z,6.70
2018-09-28T01:14:24.140Z,6.70
2018-09-28T01:18:32.280Z,6.60
2018-09-28T01:22:40.476Z,6.60
2018-09-28T01:26:48.617Z,6.50
2018-09-28T01:30:56.809Z,6.40
2018-09-28T01:35:04.945Z,6.40
2018-09-28T01:39:13.126Z,6.40
2018-09-28T01:43:21.264Z,6.30
2018-09-28T01:47:29.413Z,6.30
2018-09-28T01:51:37.568Z,6.20
2018-09-28T01:55:45.722Z,6.20
2018-09-28T01:59:53.872Z,6.10
2018-09-28T02:04:02.016Z,6.10
2018-09-28T02:08:10.170Z,6.10
2018-09-28T02:12:18.333Z,6.00
2018-09-28T02:16:26.489Z,6.00
2018-09-28T02:20:34.653Z,6.00
2018-09-28T02:24:42.817Z,5.90
2018-09-28T02:28:50.951Z,5.90
2018-09-28T02:32:59.197Z,5.80
2018-09-28T02:37:07.482Z,5.80
2018-09-28T02:41:15.635Z,5.80
2018-09-28T02:45:23.781Z,5.70
2018-09-28T02:49:31.912Z,5.70
2018-09-28T02:53:40.081Z,5.60
2018-09-28T02:57:48.238Z,5.60
2018-09-28T03:06:04.324Z,5.50
2018-09-28T03:10:12.504Z,5.50
2018-09-28T03:14:20.687Z,5.40
2018-09-28T03:18:28.816Z,5.40
2018-09-28T03:22:37.144Z,5.40
2018-09-28T03:26:45.313Z,5.30
2018-09-28T03:30:53.541Z,5.30
2018-09-28T03:35:01.676Z,5.30
2018-09-28T03:39:09.814Z,5.20
2018-09-28T03:43:17.957Z,5.20
2018-09-28T03:47:26.140Z,5.20
2018-09-28T03:51:34.280Z,5.10
2018-09-28T03:55:42.407Z,5.10
2018-09-28T03:59:50.565Z,5.10
2018-09-28T04:03:58.788Z,5.00
2018-09-28T04:08:07.036Z,5.00
2018-09-28T04:12:15.176Z,5.00
2018-09-28T04:16:23.356Z,5.00
2018-09-28T04:20:31.528Z,5.00
2018-09-28T04:24:39.677Z,5.00
2018-09-28T04:28:47.839Z,5.00
2018-09-28T04:32:55.996Z,4.90
2018-09-28T04:37:04.149Z,4.90
2018-09-28T04:41:12.406Z,4.90
2018-09-28T04:45:20.725Z,4.90
2018-09-28T04:49:28.813Z,4.90
2018-09-28T04:53:36.963Z,4.90
2018-09-28T04:57:45.122Z,4.90
2018-09-28T05:06:01.213Z,4.90
2018-09-28T05:10:09.405Z,4.90
2018-09-28T05:14:17.553Z,4.80
2018-09-28T05:18:25.702Z,4.80
2018-09-28T05:22:33.856Z,4.80
2018-09-28T05:26:41.993Z,4.80
2018-09-28T05:30:53.970Z,4.80
2018-09-28T05:34:58.306Z,4.80
2018-09-28T05:39:07.783Z,4.80
2018-09-28T05:43:15.925Z,4.80
2018-09-28T05:47:24.086Z,4.80
2018-09-28T05:51:32.348Z,4.80
2018-09-28T05:55:40.736Z,4.90
2018-09-28T05:59:54.380Z,4.90
2018-09-28T06:04:07.925Z,5.00
2018-09-28T06:08:16.136Z,5.10
2018-09-28T06:12:24.279Z,5.20
2018-09-28T06:16:32.441Z,5.30
2018-09-28T06:20:40.600Z,5.40
2018-09-28T06:24:48.780Z,5.50
2018-09-28T06:28:56.937Z,5.60
2018-09-28T06:33:05.084Z,5.70
2018-09-28T06:37:13.276Z,5.80
2018-09-28T06:41:21.424Z,6.00
2018-09-28T06:45:29.612Z,6.10
2018-09-28T06:49:37.852Z,6.30
2018-09-28T06:53:46.083Z,6.40
2018-09-28T06:57:54.324Z,6.60
2018-09-28T07:02:02.612Z,6.90
2018-09-28T07:06:10.944Z,7.10
2018-09-28T07:10:19.069Z,7.30
2018-09-28T07:14:27.229Z,7.60
2018-09-28T07:18:35.503Z,7.90
2018-09-28T07:22:43.650Z,8.30
2018-09-28T07:26:51.804Z,8.70
2018-09-28T07:30:59.964Z,9.00
2018-09-28T07:35:08.210Z,9.30
2018-09-28T07:39:16.406Z,9.60
2018-09-28T07:43:24.551Z,10.10
2018-09-28T07:47:32.697Z,10.70
2018-09-28T07:55:48.865Z,11.50
2018-09-28T07:59:57.016Z,11.90
2018-09-28T08:04:05.212Z,12.30
2018-09-28T08:08:13.317Z,12.60
2018-09-28T08:12:21.568Z,12.70
2018-09-28T08:16:29.712Z,12.70
2018-09-28T08:20:37.921Z,12.70
2018-09-28T08:24:46.145Z,12.80
2018-09-28T08:28:54.214Z,12.80
2018-09-28T08:33:02.396Z,12.70
2018-09-28T08:37:10.593Z,12.50
2018-09-28T08:41:18.774Z,12.30
2018-09-28T08:45:26.916Z,12.30
2018-09-28T08:49:35.110Z,12.50
2018-09-28T08:53:43.263Z,12.80
2018-09-28T08:57:51.441Z,13.00
2018-09-28T09:01:59.629Z,13.20
2018-09-28T09:06:07.780Z,13.40
2018-09-28T09:10:15.941Z,13.60
2018-09-28T09:14:24.125Z,13.70
2018-09-28T09:18:32.272Z,13.70
2018-09-28T09:22:40.409Z,13.40
2018-09-28T09:26:48.629Z,13.20
2018-09-28T09:30:56.785Z,13.20
2018-09-28T09:35:05.108Z,13.10
2018-09-28T09:39:13.286Z,13.00
2018-09-28T09:43:21.436Z,13.00
2018-09-28T09:47:29.588Z,13.00
2018-09-28T09:51:37.859Z,12.90
2018-09-28T09:55:46.017Z,12.90
2018-09-28T09:59:54.148Z,13.00
2018-09-28T10:04:09.331Z,13.00
2018-09-28T10:08:17.529Z,12.90
2018-09-28T10:12:25.756Z,12.80
2018-09-28T10:16:33.841Z,12.80
2018-09-28T10:20:41.995Z,12.80
2018-09-28T10:24:50.199Z,12.80
2018-09-28T10:28:58.467Z,12.80
2018-09-28T10:33:06.676Z,12.90
2018-09-28T10:37:15.159Z,12.90
2018-09-28T10:41:23.304Z,12.90
2018-09-28T10:45:31.488Z,12.90
2018-09-28T10:49:39.696Z,12.90
2018-09-28T10:53:47.841Z,13.00
2018-09-28T10:57:56.050Z,13.00
2018-09-28T11:02:04.200Z,13.00
2018-09-28T11:06:12.365Z,13.00
2018-09-28T11:10:20.556Z,12.90
2018-09-28T11:14:28.676Z,12.90
2018-09-28T11:18:36.847Z,12.90
2018-09-28T11:22:45.013Z,12.90
2018-09-28T11:26:53.197Z,12.80
2018-09-28T11:31:01.386Z,12.80
2018-09-28T11:35:09.549Z,12.80
2018-09-28T11:39:17.781Z,12.80
2018-09-28T11:43:25.910Z,12.90
2018-09-28T11:47:34.062Z,12.90
2018-09-28T11:51:42.241Z,12.90
2018-09-28T11:55:50.500Z,13.00
2018-09-28T11:59:58.703Z,13.00
2018-09-28T12:04:07.109Z,12.90
2018-09-28T12:08:15.252Z,12.90
2018-09-28T12:12:23.529Z,12.90
2018-09-28T12:16:31.604Z,12.90
2018-09-28T12:20:39.768Z,12.90
2018-09-28T12:24:47.956Z,13.10
2018-09-28T12:28:56.115Z,13.20
2018-09-28T12:33:04.345Z,13.20
2018-09-28T12:37:12.480Z,13.20
2018-09-28T12:45:28.707Z,13.20
2018-09-28T12:49:36.697Z,13.30
2018-09-28T12:53:44.939Z,13.30
2018-09-28T12:57:53.192Z,13.60
2018-09-28T13:02:01.673Z,14.10
2018-09-28T13:06:09.864Z,14.30
2018-09-28T13:10:18.010Z,14.20
2018-09-28T13:14:26.227Z,14.30
2018-09-28T13:18:34.403Z,15.00
2018-09-28T13:22:42.507Z,15.40
2018-09-28T13:26:50.783Z,15.70
2018-09-28T13:30:58.825Z,15.40
2018-09-28T13:35:07.028Z,14.90
2018-09-28T13:39:15.182Z,14.20
2018-09-28T13:43:23.341Z,13.80
2018-09-28T13:47:31.587Z,13.80
2018-09-28T13:51:39.842Z,14.00
2018-09-28T13:55:48.003Z,14.30
2018-09-28T13:59:56.471Z,14.10
2018-09-28T14:04:04.638Z,13.60
2018-09-28T14:08:12.830Z,13.20
2018-09-28T14:12:20.975Z,13.00
2018-09-28T14:16:29.149Z,12.80
2018-09-28T14:20:37.324Z,12.50
2018-09-28T14:24:45.492Z,12.30
2018-09-28T14:28:53.745Z,12.10
2018-09-28T14:33:01.822Z,12.00
2018-09-28T14:37:09.972Z,11.90
2018-09-28T14:41:18.122Z,12.00
2018-09-28T14:45:26.283Z,12.10
2018-09-28T14:49:34.436Z,12.20
2018-09-28T14:53:42.587Z,12.30
2018-09-28T14:57:50.753Z,12.40
2018-09-28T15:01:58.961Z,12.40
2018-09-28T15:06:07.449Z,12.40
2018-09-28T15:10:15.638Z,12.40
2018-09-28T15:14:23.828Z,12.50
2018-09-28T15:18:32.014Z,12.50
2018-09-28T15:22:40.161Z,12.40
2018-09-28T15:26:48.363Z,12.50
2018-09-28T15:30:56.519Z,12.50
2018-09-28T15:35:04.725Z,12.50
2018-09-28T15:39:13.826Z,12.50
2018-09-28T15:43:21.951Z,12.60
2018-09-28T15:47:30.124Z,12.80
2018-09-28T15:51:38.267Z,12.90
2018-09-28T15:55:46.425Z,12.90
2018-09-28T16:04:02.561Z,13.10
2018-09-28T16:08:10.705Z,13.10
2018-09-28T16:12:18.888Z,13.40
2018-09-28T16:16:27.060Z,13.40
2018-09-28T16:20:35.328Z,13.30
2018-09-28T16:24:43.490Z,13.10
2018-09-28T16:28:51.725Z,13.00
2018-09-28T16:32:59.908Z,12.90
2018-09-28T16:37:08.101Z,12.90
2018-09-28T16:41:16.312Z,12.90
2018-09-28T16:49:32.384Z,12.50
2018-09-28T16:53:40.584Z,12.40
2018-09-28T16:57:48.757Z,12.20
2018-09-28T17:01:56.905Z,11.90
2018-09-28T17:06:05.081Z,11.60
2018-09-28T17:10:13.235Z,11.40
2018-09-28T17:14:21.364Z,11.10
2018-09-28T17:18:29.513Z,10.90
2018-09-28T17:22:37.658Z,10.60
2018-09-28T17:26:45.825Z,10.40
2018-09-28T17:30:53.979Z,10.20
2018-09-28T17:35:02.228Z,10.00
2018-09-28T17:43:19.833Z,9.60
2018-09-28T17:47:27.986Z,9.40
2018-09-28T17:51:36.201Z,9.20
2018-09-28T17:55:44.409Z,9.10
2018-09-28T17:59:52.576Z,9.00
2018-09-28T18:04:00.737Z,8.90
2018-09-28T18:08:08.884Z,8.70
2018-09-28T18:12:17.032Z,8.60
2018-09-28T18:16:25.184Z,8.40
2018-09-28T18:20:33.380Z,8.40
2018-09-28T18:24:41.516Z,8.40
2018-09-28T18:28:49.743Z,8.40
2018-09-28T18:32:57.938Z,8.40
2018-09-28T18:37:06.103Z,8.40
2018-09-28T18:41:14.233Z,8.50
2018-09-28T18:45:22.393Z,8.40
2018-09-28T18:49:30.612Z,8.50
2018-09-28T18:53:38.769Z,8.50
2018-09-28T18:57:46.957Z,8.40
2018-09-28T19:01:55.109Z,8.30
2018-09-28T19:10:11.209Z,8.00
2018-09-28T19:14:19.383Z,8.00
2018-09-28T19:18:27.566Z,7.90
2018-09-28T19:22:35.704Z,7.80
2018-09-28T19:26:43.857Z,7.70
2018-09-28T19:30:52.068Z,7.60
2018-09-28T19:35:00.181Z,7.50
2018-09-28T19:39:09.649Z,7.40
2018-09-28T19:43:17.799Z,7.40
2018-09-28T19:47:25.947Z,7.40
2018-09-28T19:51:34.216Z,7.40
2018-09-28T19:55:42.397Z,7.40
2018-09-28T19:59:50.510Z,7.40
2018-09-28T20:03:58.674Z,7.30
2018-09-28T20:08:06.861Z,7.30
2018-09-28T20:12:15.036Z,7.20
2018-09-28T20:16:23.201Z,7.20
2018-09-28T20:20:31.343Z,7.10
2018-09-28T20:24:39.495Z,7.00
2018-09-28T20:28:47.637Z,6.80
2018-09-28T20:32:55.856Z,6.70
2018-09-28T20:37:03.992Z,6.60
2018-09-28T20:41:12.153Z,6.50
2018-09-28T20:45:20.305Z,6.40
2018-09-28T20:49:28.461Z,6.30
2018-09-28T20:53:36.636Z,6.20
2018-09-28T20:57:44.786Z,6.20
2018-09-28T21:01:52.990Z,6.10
2018-09-28T21:06:01.133Z,6.00
2018-09-28T21:10:09.289Z,6.00
2018-09-28T21:14:17.494Z,5.90
2018-09-28T21:18:25.649Z,5.80
2018-09-28T21:22:33.800Z,5.80
2018-09-28T21:26:41.980Z,5.70
2018-09-28T21:30:50.132Z,5.60
2018-09-28T21:34:58.325Z,5.60
2018-09-28T21:39:07.945Z,5.50
2018-09-28T21:43:16.204Z,5.40
2018-09-28T21:47:24.353Z,5.40
2018-09-28T21:51:32.496Z,5.30
2018-09-28T21:55:40.648Z,5.20
2018-09-28T21:59:48.792Z,5.20
2018-09-28T22:03:57.208Z,5.10
2018-09-28T22:08:05.378Z,5.00
2018-09-28T22:12:13.550Z,5.00
2018-09-28T22:16:21.708Z,4.90
2018-09-28T22:20:29.860Z,4.90
2018-09-28T22:24:38.037Z,4.80
2018-09-28T22:28:46.187Z,4.70
2018-09-28T22:32:54.376Z,4.70
2018-09-28T22:37:02.540Z,4.60
2018-09-28T22:41:11.745Z,4.60
2018-09-28T22:45:19.917Z,4.50
2018-09-28T22:49:28.068Z,4.50
2018-09-28T22:53:36.224Z,4.40
2018-09-28T22:57:44.372Z,4.40
2018-09-28T23:01:52.512Z,4.40
2018-09-28T23:06:00.684Z,4.30
2018-09-28T23:10:08.832Z,4.30
2018-09-28T23:14:16.980Z,4.20
2018-09-28T23:18:25.181Z,4.10
2018-09-28T23:22:33.336Z,4.10
2018-09-28T23:26:41.529Z,4.00
2018-09-28T23:30:49.676Z,4.00
2018-09-28T23:34:57.872Z,3.90
2018-09-28T23:39:07.813Z,3.90
2018-09-28T23:43:16.005Z,3.80
2018-09-28T23:47:24.182Z,3.80
2018-09-28T23:51:32.466Z,3.70
2018-09-28T23:55:40.642Z,3.70
2018-09-28T23:59:48.792Z,3.70
